sensor_id;sensor_type;location;lat;lon;timestamp;pressure;altitude;pressure_sealevel;temperature;humidity
41222;BME280;26952;42.884;23.918;2023-01-29T00:02:12;95950.22;;;2.24;100.00
41222;BME280;26952;42.884;23.918;2023-01-29T00:04:38;95941.69;;;2.22;100.00
41222;BME280;26952;42.884;23.918;2023-01-29T00:07:03;95952.81;;;2.24;100.00
41222;BME280;26952;42.884;23.918;2023-01-29T00:09:29;95926.63;;;2.03;100.00
41222;BME280;26952;42.884;23.918;2023-01-29T00:11:55;95962.84;;;2.19;100.00
41222;BME280;26952;42.884;23.918;2023-01-29T00:14:21;95958.66;;;2.16;100.00
41222;BME280;26952;42.884;23.918;2023-01-29T00:16:46;95959.75;;;2.14;100.00
41222;BME280;26952;42.884;23.918;2023-01-29T00:19:11;95952.38;;;2.08;100.00
41222;BME280;26952;42.884;23.918;2023-01-29T00:21:37;95959.88;;;2.12;100.00
41222;BME280;26952;42.884;23.918;2023-01-29T00:24:02;95969.94;;;2.17;100.00
41222;BME280;26952;42.884;23.918;2023-01-29T00:26:28;95961.16;;;2.18;100.00
41222;BME280;26952;42.884;23.918;2023-01-29T00:28:54;95976.69;;;2.30;100.00
41222;BME280;26952;42.884;23.918;2023-01-29T00:31:22;95977.03;;;2.26;100.00
41222;BME280;26952;42.884;23.918;2023-01-29T00:33:48;95974.69;;;2.12;100.00
41222;BME280;26952;42.884;23.918;2023-01-29T00:36:15;95980.38;;;2.17;100.00
41222;BME280;26952;42.884;23.918;2023-01-29T00:38:41;95945.25;;;1.99;100.00
41222;BME280;26952;42.884;23.918;2023-01-29T00:41:11;95974.22;;;2.07;100.00
41222;BME280;26952;42.884;23.918;2023-01-29T00:43:56;95978.69;;;2.16;100.00
41222;BME280;26952;42.884;23.918;2023-01-29T00:46:41;95985.84;;;2.14;100.00
41222;BME280;26952;42.884;23.918;2023-01-29T00:49:08;95972.31;;;2.09;100.00
41222;BME280;26952;42.884;23.918;2023-01-29T00:51:34;95973.47;;;2.16;100.00
41222;BME280;26952;42.884;23.918;2023-01-29T00:53:59;95970.63;;;2.08;100.00
41222;BME280;26952;42.884;23.918;2023-01-29T00:56:29;95966.25;;;2.08;100.00
41222;BME280;26952;42.884;23.918;2023-01-29T00:58:55;95981.78;;;2.21;100.00
41222;BME280;26952;42.884;23.918;2023-01-29T01:01:22;95962.13;;;2.06;100.00
41222;BME280;26952;42.884;23.918;2023-01-29T01:04:07;95973.84;;;2.11;100.00
41222;BME280;26952;42.884;23.918;2023-01-29T01:06:33;95972.56;;;2.06;100.00
41222;BME280;26952;42.884;23.918;2023-01-29T01:09:00;95978.47;;;2.08;100.00
41222;BME280;26952;42.884;23.918;2023-01-29T01:11:44;95963.88;;;1.94;100.00
41222;BME280;26952;42.884;23.918;2023-01-29T01:14:10;95979.63;;;1.82;100.00
41222;BME280;26952;42.884;23.918;2023-01-29T01:16:35;95965.66;;;1.72;100.00
41222;BME280;26952;42.884;23.918;2023-01-29T01:19:02;95985.31;;;1.76;100.00
41222;BME280;26952;42.884;23.918;2023-01-29T01:21:27;95979.13;;;1.66;100.00
41222;BME280;26952;42.884;23.918;2023-01-29T01:23:53;95968.22;;;1.61;100.00
41222;BME280;26952;42.884;23.918;2023-01-29T01:26:18;95991.25;;;1.78;100.00
41222;BME280;26952;42.884;23.918;2023-01-29T01:28:44;95996.25;;;1.81;100.00
41222;BME280;26952;42.884;23.918;2023-01-29T01:31:11;95986.06;;;1.89;100.00
41222;BME280;26952;42.884;23.918;2023-01-29T01:33:37;95994.59;;;1.91;100.00
41222;BME280;26952;42.884;23.918;2023-01-29T01:36:04;95994.38;;;1.94;100.00
41222;BME280;26952;42.884;23.918;2023-01-29T01:38:29;95988.28;;;1.82;100.00
41222;BME280;26952;42.884;23.918;2023-01-29T01:40:55;95972.75;;;1.81;100.00
41222;BME280;26952;42.884;23.918;2023-01-29T01:43:20;95994.97;;;1.97;100.00
41222;BME280;26952;42.884;23.918;2023-01-29T01:45:46;95993.88;;;2.00;100.00
41222;BME280;26952;42.884;23.918;2023-01-29T01:48:21;95996.06;;;2.06;100.00
41222;BME280;26952;42.884;23.918;2023-01-29T01:51:00;95968.63;;;1.78;100.00
41222;BME280;26952;42.884;23.918;2023-01-29T01:53:30;95957.81;;;1.72;100.00
41222;BME280;26952;42.884;23.918;2023-01-29T01:56:01;95989.63;;;1.88;100.00
41222;BME280;26952;42.884;23.918;2023-01-29T01:58:33;95984.63;;;1.85;100.00
41222;BME280;26952;42.884;23.918;2023-01-29T02:01:03;95985.09;;;1.79;100.00
41222;BME280;26952;42.884;23.918;2023-01-29T02:03:32;96003.59;;;1.87;100.00
41222;BME280;26952;42.884;23.918;2023-01-29T02:06:18;95993.13;;;1.65;100.00
41222;BME280;26952;42.884;23.918;2023-01-29T02:09:12;95997.84;;;1.60;100.00
41222;BME280;26952;42.884;23.918;2023-01-29T02:11:59;95994.16;;;1.51;100.00
41222;BME280;26952;42.884;23.918;2023-01-29T02:14:25;95985.53;;;1.51;100.00
41222;BME280;26952;42.884;23.918;2023-01-29T02:16:51;95988.91;;;1.40;100.00
41222;BME280;26952;42.884;23.918;2023-01-29T02:41:45;96008.16;;;1.26;100.00
41222;BME280;26952;42.884;23.918;2023-01-29T02:44:25;96015.66;;;1.31;100.00
41222;BME280;26952;42.884;23.918;2023-01-29T02:47:04;96005.75;;;1.36;100.00
41222;BME280;26952;42.884;23.918;2023-01-29T02:49:45;96019.69;;;1.59;100.00
41222;BME280;26952;42.884;23.918;2023-01-29T02:52:23;96026.09;;;1.66;100.00
41222;BME280;26952;42.884;23.918;2023-01-29T02:57:29;96018.97;;;1.68;100.00
41222;BME280;26952;42.884;23.918;2023-01-29T03:00:10;96002.28;;;1.70;100.00
41222;BME280;26952;42.884;23.918;2023-01-29T03:02:48;96029.19;;;1.82;100.00
41222;BME280;26952;42.884;23.918;2023-01-29T03:05:21;96023.66;;;1.86;100.00
41222;BME280;26952;42.884;23.918;2023-01-29T03:07:52;95985.91;;;1.68;100.00
41222;BME280;26952;42.884;23.918;2023-01-29T03:10:39;96017.97;;;1.92;100.00
41222;BME280;26952;42.884;23.918;2023-01-29T03:13:21;96030.06;;;1.93;100.00
41222;BME280;26952;42.884;23.918;2023-01-29T03:18:56;96031.38;;;1.99;100.00
41222;BME280;26952;42.884;23.918;2023-01-29T03:21:31;96033.53;;;2.05;100.00
41222;BME280;26952;42.884;23.918;2023-01-29T03:24:53;96029.38;;;2.02;100.00
41222;BME280;26952;42.884;23.918;2023-01-29T03:27:43;96023.56;;;1.99;100.00
41222;BME280;26952;42.884;23.918;2023-01-29T03:30:32;96021.06;;;1.97;100.00
41222;BME280;26952;42.884;23.918;2023-01-29T03:33:20;96038.84;;;2.03;100.00
41222;BME280;26952;42.884;23.918;2023-01-29T03:35:50;96029.00;;;1.96;100.00
41222;BME280;26952;42.884;23.918;2023-01-29T03:38:18;96033.53;;;2.05;100.00
41222;BME280;26952;42.884;23.918;2023-01-29T03:40:51;96024.84;;;1.93;100.00
41222;BME280;26952;42.884;23.918;2023-01-29T03:43:46;96040.31;;;2.07;100.00
41222;BME280;26952;42.884;23.918;2023-01-29T03:46:24;96019.97;;;2.00;100.00
41222;BME280;26952;42.884;23.918;2023-01-29T03:49:02;96012.88;;;2.02;100.00
41222;BME280;26952;42.884;23.918;2023-01-29T03:51:37;96038.75;;;2.16;100.00
41222;BME280;26952;42.884;23.918;2023-01-29T03:54:13;96036.25;;;2.03;100.00
41222;BME280;26952;42.884;23.918;2023-01-29T03:56:56;96041.81;;;1.99;100.00
41222;BME280;26952;42.884;23.918;2023-01-29T04:02:20;96011.38;;;1.65;100.00
41222;BME280;26952;42.884;23.918;2023-01-29T04:04:53;96011.72;;;1.49;100.00
41222;BME280;26952;42.884;23.918;2023-01-29T04:07:21;95986.84;;;1.21;100.00
41222;BME280;26952;42.884;23.918;2023-01-29T04:09:58;96035.38;;;1.46;100.00
41222;BME280;26952;42.884;23.918;2023-01-29T04:12:29;96046.66;;;1.47;100.00
41222;BME280;26952;42.884;23.918;2023-01-29T04:14:58;96037.41;;;1.42;100.00
41222;BME280;26952;42.884;23.918;2023-01-29T04:17:33;96040.00;;;1.42;100.00
41222;BME280;26952;42.884;23.918;2023-01-29T04:20:02;96037.13;;;1.34;100.00
41222;BME280;26952;42.884;23.918;2023-01-29T04:22:33;96045.88;;;1.33;100.00
41222;BME280;26952;42.884;23.918;2023-01-29T04:25:02;96040.00;;;1.42;100.00
41222;BME280;26952;42.884;23.918;2023-01-29T04:38:56;96059.25;;;1.29;100.00
41222;BME280;26952;42.884;23.918;2023-01-29T04:41:33;96055.69;;;1.30;100.00
41222;BME280;26952;42.884;23.918;2023-01-29T04:44:07;96044.78;;;1.25;100.00
41222;BME280;26952;42.884;23.918;2023-01-29T04:49:55;96060.91;;;1.30;100.00
41222;BME280;26952;42.884;23.918;2023-01-29T04:55:24;96065.81;;;1.11;100.00
41222;BME280;26952;42.884;23.918;2023-01-29T04:58:04;96058.94;;;1.10;100.00
41222;BME280;26952;42.884;23.918;2023-01-29T05:00:36;96041.00;;;1.05;100.00
41222;BME280;26952;42.884;23.918;2023-01-29T05:03:04;96039.81;;;0.98;100.00
41222;BME280;26952;42.884;23.918;2023-01-29T05:05:30;96066.41;;;1.14;100.00
41222;BME280;26952;42.884;23.918;2023-01-29T05:07:56;96054.88;;;0.82;100.00
41222;BME280;26952;42.884;23.918;2023-01-29T05:10:23;96071.28;;;0.95;100.00
41222;BME280;26952;42.884;23.918;2023-01-29T05:13:00;96062.63;;;0.95;100.00
41222;BME280;26952;42.884;23.918;2023-01-29T05:15:49;96072.28;;;1.05;100.00
41222;BME280;26952;42.884;23.918;2023-01-29T05:18:17;96081.56;;;1.09;100.00
41222;BME280;26952;42.884;23.918;2023-01-29T05:20:43;96083.72;;;1.15;100.00
41222;BME280;26952;42.884;23.918;2023-01-29T05:23:20;96071.63;;;1.14;100.00
41222;BME280;26952;42.884;23.918;2023-01-29T05:25:48;96064.78;;;1.13;100.00
41222;BME280;26952;42.884;23.918;2023-01-29T05:28:14;96080.47;;;1.24;100.00
41222;BME280;26952;42.884;23.918;2023-01-29T05:30:44;96088.28;;;1.24;100.00
41222;BME280;26952;42.884;23.918;2023-01-29T05:33:17;96079.84;;;1.21;100.00
41222;BME280;26952;42.884;23.918;2023-01-29T05:35:43;96074.97;;;1.16;100.00
41222;BME280;26952;42.884;23.918;2023-01-29T05:38:09;96078.88;;;1.22;100.00
41222;BME280;26952;42.884;23.918;2023-01-29T05:40:35;96078.00;;;1.10;100.00
41222;BME280;26952;42.884;23.918;2023-01-29T05:43:00;96098.03;;;1.10;100.00
41222;BME280;26952;42.884;23.918;2023-01-29T05:45:26;96104.56;;;1.15;100.00
41222;BME280;26952;42.884;23.918;2023-01-29T05:47:59;96104.38;;;1.06;100.00
41222;BME280;26952;42.884;23.918;2023-01-29T05:50:25;96101.66;;;1.07;100.00
41222;BME280;26952;42.884;23.918;2023-01-29T05:52:56;96092.16;;;0.83;100.00
41222;BME280;26952;42.884;23.918;2023-01-29T05:55:22;96107.53;;;0.98;100.00
41222;BME280;26952;42.884;23.918;2023-01-29T05:57:47;96104.00;;;0.99;100.00
41222;BME280;26952;42.884;23.918;2023-01-29T06:00:13;96105.66;;;1.00;100.00
41222;BME280;26952;42.884;23.918;2023-01-29T06:02:38;96100.88;;;0.94;100.00
41222;BME280;26952;42.884;23.918;2023-01-29T06:05:04;96096.91;;;1.01;100.00
41222;BME280;26952;42.884;23.918;2023-01-29T06:07:30;96103.25;;;1.10;100.00
41222;BME280;26952;42.884;23.918;2023-01-29T06:09:55;96103.66;;;1.04;100.00
41222;BME280;26952;42.884;23.918;2023-01-29T06:12:20;96108.69;;;1.07;100.00
41222;BME280;26952;42.884;23.918;2023-01-29T06:14:46;96108.56;;;1.08;100.00
41222;BME280;26952;42.884;23.918;2023-01-29T06:17:11;96119.69;;;1.10;100.00
41222;BME280;26952;42.884;23.918;2023-01-29T06:19:37;96108.56;;;1.08;100.00
41222;BME280;26952;42.884;23.918;2023-01-29T06:22:02;96123.09;;;1.23;100.00
41222;BME280;26952;42.884;23.918;2023-01-29T06:24:28;96118.94;;;1.21;100.00
41222;BME280;26952;42.884;23.918;2023-01-29T06:26:53;96117.47;;;1.17;100.00
41222;BME280;26952;42.884;23.918;2023-01-29T06:29:19;96135.72;;;1.29;100.00
41222;BME280;26952;42.884;23.918;2023-01-29T06:31:44;96108.13;;;1.14;100.00
41222;BME280;26952;42.884;23.918;2023-01-29T06:34:09;96132.16;;;1.30;100.00
41222;BME280;26952;42.884;23.918;2023-01-29T06:36:35;96144.16;;;1.20;100.00
41222;BME280;26952;42.884;23.918;2023-01-29T06:39:00;96144.78;;;1.24;100.00
41222;BME280;26952;42.884;23.918;2023-01-29T06:41:26;96129.19;;;1.11;100.00
41222;BME280;26952;42.884;23.918;2023-01-29T06:43:51;96134.50;;;1.10;100.00
41222;BME280;26952;42.884;23.918;2023-01-29T06:46:17;96135.19;;;1.24;100.00
41222;BME280;26952;42.884;23.918;2023-01-29T06:48:42;96117.06;;;1.23;100.00
41222;BME280;26952;42.884;23.918;2023-01-29T06:51:09;96142.41;;;1.44;100.00
41222;BME280;26952;42.884;23.918;2023-01-29T06:53:35;96131.19;;;1.31;100.00
41222;BME280;26952;42.884;23.918;2023-01-29T06:56:02;96153.84;;;1.55;100.00
41222;BME280;26952;42.884;23.918;2023-01-29T06:58:28;96152.94;;;1.56;100.00
41222;BME280;26952;42.884;23.918;2023-01-29T07:00:53;96168.41;;;1.70;100.00
41222;BME280;26952;42.884;23.918;2023-01-29T07:03:18;96152.34;;;1.63;100.00
41222;BME280;26952;42.884;23.918;2023-01-29T07:05:51;96160.56;;;1.70;100.00
41222;BME280;26952;42.884;23.918;2023-01-29T07:08:17;96169.25;;;1.70;100.00
41222;BME280;26952;42.884;23.918;2023-01-29T07:10:42;96187.81;;;1.66;100.00
41222;BME280;26952;42.884;23.918;2023-01-29T07:13:08;96182.09;;;1.61;100.00
41222;BME280;26952;42.884;23.918;2023-01-29T07:15:34;96186.88;;;1.67;100.00
41222;BME280;26952;42.884;23.918;2023-01-29T07:18:02;96187.66;;;1.80;100.00
41222;BME280;26952;42.884;23.918;2023-01-29T07:20:30;96178.38;;;1.76;100.00
41222;BME280;26952;42.884;23.918;2023-01-29T07:22:56;96182.00;;;1.86;100.00
41222;BME280;26952;42.884;23.918;2023-01-29T07:25:23;96198.38;;;1.88;100.00
41222;BME280;26952;42.884;23.918;2023-01-29T07:27:49;96184.56;;;1.75;100.00
41222;BME280;26952;42.884;23.918;2023-01-29T07:30:15;96194.53;;;1.81;100.00
41222;BME280;26952;42.884;23.918;2023-01-29T07:32:41;96181.00;;;1.76;100.00
41222;BME280;26952;42.884;23.918;2023-01-29T07:35:06;96196.47;;;1.90;100.00
41222;BME280;26952;42.884;23.918;2023-01-29T07:37:32;96199.53;;;1.84;100.00
41222;BME280;26952;42.884;23.918;2023-01-29T07:39:58;96204.03;;;1.82;100.00
41222;BME280;26952;42.884;23.918;2023-01-29T07:42:23;96176.50;;;1.78;100.00
41222;BME280;26952;42.884;23.918;2023-01-29T07:44:48;96198.88;;;1.93;100.00
41222;BME280;26952;42.884;23.918;2023-01-29T07:47:14;96194.03;;;1.76;100.00
41222;BME280;26952;42.884;23.918;2023-01-29T07:49:39;96198.59;;;1.85;100.00
41222;BME280;26952;42.884;23.918;2023-01-29T07:52:05;96192.94;;;1.91;100.00
41222;BME280;26952;42.884;23.918;2023-01-29T07:54:30;96187.94;;;1.88;100.00
41222;BME280;26952;42.884;23.918;2023-01-29T07:56:55;96201.88;;;1.99;100.00
41222;BME280;26952;42.884;23.918;2023-01-29T07:59:21;96209.13;;;2.07;100.00
41222;BME280;26952;42.884;23.918;2023-01-29T08:01:46;96206.75;;;2.04;100.00
41222;BME280;26952;42.884;23.918;2023-01-29T08:04:12;96184.69;;;2.08;100.00
41222;BME280;26952;42.884;23.918;2023-01-29T08:06:37;96217.72;;;2.20;100.00
41222;BME280;26952;42.884;23.918;2023-01-29T08:09:02;96219.97;;;2.13;100.00
41222;BME280;26952;42.884;23.918;2023-01-29T08:11:28;96232.59;;;1.96;100.00
41222;BME280;26952;42.884;23.918;2023-01-29T08:13:53;96218.81;;;1.94;100.00
41222;BME280;26952;42.884;23.918;2023-01-29T08:16:19;96215.22;;;1.95;100.00
41222;BME280;26952;42.884;23.918;2023-01-29T08:18:44;96225.13;;;2.02;100.00
41222;BME280;26952;42.884;23.918;2023-01-29T08:21:12;96227.19;;;2.10;100.00
41222;BME280;26952;42.884;23.918;2023-01-29T08:23:38;96222.13;;;1.96;100.00
41222;BME280;26952;42.884;23.918;2023-01-29T08:26:04;96226.75;;;1.92;100.00
41222;BME280;26952;42.884;23.918;2023-01-29T08:28:29;96195.84;;;1.63;100.00
41222;BME280;26952;42.884;23.918;2023-01-29T08:30:55;96233.00;;;1.90;100.00
41222;BME280;26952;42.884;23.918;2023-01-29T08:33:20;96245.34;;;1.88;100.00
41222;BME280;26952;42.884;23.918;2023-01-29T08:35:49;96250.28;;;1.80;100.00
41222;BME280;26952;42.884;23.918;2023-01-29T08:38:16;96231.75;;;1.59;100.00
41222;BME280;26952;42.884;23.918;2023-01-29T08:40:42;96244.56;;;1.75;100.00
41222;BME280;26952;42.884;23.918;2023-01-29T08:43:10;96255.56;;;1.91;100.00
41222;BME280;26952;42.884;23.918;2023-01-29T08:45:39;96265.03;;;2.04;100.00
41222;BME280;26952;42.884;23.918;2023-01-29T08:48:05;96265.09;;;2.03;100.00
41222;BME280;26952;42.884;23.918;2023-01-29T08:50:31;96267.28;;;2.09;100.00
41222;BME280;26952;42.884;23.918;2023-01-29T08:53:00;96253.75;;;2.04;100.00
41222;BME280;26952;42.884;23.918;2023-01-29T08:55:26;96269.69;;;2.12;100.00
41222;BME280;26952;42.884;23.918;2023-01-29T08:57:52;96250.56;;;1.88;100.00
41222;BME280;26952;42.884;23.918;2023-01-29T09:00:17;96246.56;;;1.95;100.00
41222;BME280;26952;42.884;23.918;2023-01-29T09:02:43;96234.97;;;1.99;100.00
41222;BME280;26952;42.884;23.918;2023-01-29T09:05:09;96261.13;;;2.10;100.00
41222;BME280;26952;42.884;23.918;2023-01-29T09:07:34;96255.34;;;1.94;100.00
41222;BME280;26952;42.884;23.918;2023-01-29T09:10:00;96255.22;;;1.95;100.00
41222;BME280;26952;42.884;23.918;2023-01-29T09:12:25;96254.25;;;2.09;100.00
41222;BME280;26952;42.884;23.918;2023-01-29T09:14:51;96247.09;;;2.11;100.00
41222;BME280;26952;42.884;23.918;2023-01-29T09:17:16;96250.66;;;2.10;100.00
41222;BME280;26952;42.884;23.918;2023-01-29T09:19:42;96243.13;;;1.94;100.00
41222;BME280;26952;42.884;23.918;2023-01-29T09:22:07;96251.22;;;1.79;100.00
41222;BME280;26952;42.884;23.918;2023-01-29T09:24:32;96246.31;;;1.74;100.00
41222;BME280;26952;42.884;23.918;2023-01-29T09:26:59;96239.19;;;1.89;100.00
41222;BME280;26952;42.884;23.918;2023-01-29T09:29:25;96245.22;;;2.13;100.00
41222;BME280;26952;42.884;23.918;2023-01-29T09:31:50;96216.38;;;2.14;100.00
41222;BME280;26952;42.884;23.918;2023-01-29T09:34:16;96242.75;;;2.46;100.00
41222;BME280;26952;42.884;23.918;2023-01-29T09:36:41;96235.19;;;2.54;100.00
41222;BME280;26952;42.884;23.918;2023-01-29T09:39:07;96227.13;;;2.68;100.00
41222;BME280;26952;42.884;23.918;2023-01-29T09:46:52;96226.81;;;2.95;100.00
41222;BME280;26952;42.884;23.918;2023-01-29T09:49:27;96233.03;;;3.05;100.00
41222;BME280;26952;42.884;23.918;2023-01-29T09:52:14;96217.31;;;2.94;100.00
41222;BME280;26952;42.884;23.918;2023-01-29T10:03:30;96224.47;;;3.14;100.00
41222;BME280;26952;42.884;23.918;2023-01-29T10:11:23;96224.09;;;3.40;100.00
41222;BME280;26952;42.884;23.918;2023-01-29T10:16:39;96219.09;;;3.26;100.00
41222;BME280;26952;42.884;23.918;2023-01-29T10:25:16;96191.03;;;2.84;100.00
41222;BME280;26952;42.884;23.918;2023-01-29T10:27:51;96192.25;;;3.02;100.00
41222;BME280;26952;42.884;23.918;2023-01-29T10:30:28;96205.53;;;3.21;100.00
41222;BME280;26952;42.884;23.918;2023-01-29T10:33:00;96196.06;;;3.09;100.00
41222;BME280;26952;42.884;23.918;2023-01-29T10:35:58;96195.22;;;3.09;100.00
41222;BME280;26952;42.884;23.918;2023-01-29T10:38:44;96198.56;;;3.00;100.00
41222;BME280;26952;42.884;23.918;2023-01-29T10:54:29;96194.97;;;2.78;100.00
41222;BME280;26952;42.884;23.918;2023-01-29T11:02:47;96177.84;;;2.18;100.00
41222;BME280;26952;42.884;23.918;2023-01-29T11:05:38;96178.69;;;2.18;100.00
41222;BME280;26952;42.884;23.918;2023-01-29T11:08:15;96170.75;;;1.96;100.00
41222;BME280;26952;42.884;23.918;2023-01-29T11:13:54;96172.78;;;1.93;100.00
41222;BME280;26952;42.884;23.918;2023-01-29T11:16:21;96158.56;;;2.08;100.00
41222;BME280;26952;42.884;23.918;2023-01-29T11:21:14;96159.56;;;2.18;100.00
41222;BME280;26952;42.884;23.918;2023-01-29T11:23:40;96146.03;;;2.13;100.00
41222;BME280;26952;42.884;23.918;2023-01-29T11:26:07;96148.47;;;2.38;100.00
41222;BME280;26952;42.884;23.918;2023-01-29T11:28:47;96142.78;;;2.66;100.00
41222;BME280;26952;42.884;23.918;2023-01-29T11:31:25;96142.22;;;2.84;100.00
41222;BME280;26952;42.884;23.918;2023-01-29T11:34:00;96146.13;;;2.79;100.00
41222;BME280;26952;42.884;23.918;2023-01-29T11:36:34;96125.34;;;2.55;100.00
41222;BME280;26952;42.884;23.918;2023-01-29T11:39:17;96125.59;;;2.63;100.00
41222;BME280;26952;42.884;23.918;2023-01-29T11:41:52;96138.75;;;2.73;100.00
41222;BME280;26952;42.884;23.918;2023-01-29T11:44:20;96140.41;;;2.52;100.00
41222;BME280;26952;42.884;23.918;2023-01-29T11:46:46;96120.06;;;2.22;100.00
41222;BME280;26952;42.884;23.918;2023-01-29T11:49:32;96141.91;;;2.32;100.00
41222;BME280;26952;42.884;23.918;2023-01-29T11:52:02;96121.09;;;2.09;100.00
41222;BME280;26952;42.884;23.918;2023-01-29T11:54:31;96131.09;;;2.15;100.00
41222;BME280;26952;42.884;23.918;2023-01-29T11:56:59;96131.56;;;2.20;100.00
41222;BME280;26952;42.884;23.918;2023-01-29T12:01:54;96113.81;;;2.58;100.00
41222;BME280;26952;42.884;23.918;2023-01-29T12:04:23;96118.69;;;2.62;100.00
41222;BME280;26952;42.884;23.918;2023-01-29T12:06:50;96139.97;;;2.69;100.00
41222;BME280;26952;42.884;23.918;2023-01-29T12:09:20;96103.84;;;2.63;100.00
41222;BME280;26952;42.884;23.918;2023-01-29T12:11:46;96133.28;;;2.76;100.00
41222;BME280;26952;42.884;23.918;2023-01-29T12:14:30;96100.63;;;2.93;100.00
41222;BME280;26952;42.884;23.918;2023-01-29T12:17:19;96139.94;;;3.35;100.00
41222;BME280;26952;42.884;23.918;2023-01-29T12:20:00;96103.53;;;3.43;100.00
41222;BME280;26952;42.884;23.918;2023-01-29T12:22:43;96125.97;;;3.88;100.00
41222;BME280;26952;42.884;23.918;2023-01-29T12:25:22;96110.13;;;3.90;100.00
41222;BME280;26952;42.884;23.918;2023-01-29T12:30:30;96118.22;;;3.55;100.00
41222;BME280;26952;42.884;23.918;2023-01-29T12:36:35;96141.66;;;3.46;100.00
41222;BME280;26952;42.884;23.918;2023-01-29T12:39:04;96127.28;;;3.51;100.00
41222;BME280;26952;42.884;23.918;2023-01-29T12:41:43;96129.66;;;3.54;100.00
41222;BME280;26952;42.884;23.918;2023-01-29T12:44:24;96141.03;;;3.64;100.00
41222;BME280;26952;42.884;23.918;2023-01-29T12:46:57;96135.56;;;3.67;100.00
41222;BME280;26952;42.884;23.918;2023-01-29T12:49:27;96127.91;;;3.75;100.00
41222;BME280;26952;42.884;23.918;2023-01-29T12:52:00;96127.66;;;3.78;100.00
41222;BME280;26952;42.884;23.918;2023-01-29T12:54:37;96136.31;;;3.90;100.00
41222;BME280;26952;42.884;23.918;2023-01-29T12:57:09;96129.94;;;4.03;100.00
41222;BME280;26952;42.884;23.918;2023-01-29T12:59:47;96128.13;;;4.04;100.00
41222;BME280;26952;42.884;23.918;2023-01-29T13:02:35;96140.66;;;4.00;100.00
41222;BME280;26952;42.884;23.918;2023-01-29T13:05:18;96132.06;;;4.09;100.00
41222;BME280;26952;42.884;23.918;2023-01-29T13:07:47;96131.59;;;3.84;100.00
41222;BME280;26952;42.884;23.918;2023-01-29T13:10:27;96116.44;;;3.56;100.00
41222;BME280;26952;42.884;23.918;2023-01-29T13:13:01;96136.06;;;3.61;100.00
41222;BME280;26952;42.884;23.918;2023-01-29T13:15:39;96131.53;;;3.52;100.00
41222;BME280;26952;42.884;23.918;2023-01-29T13:18:32;96135.34;;;3.59;100.00
41222;BME280;26952;42.884;23.918;2023-01-29T13:21:03;96130.56;;;3.64;100.00
41222;BME280;26952;42.884;23.918;2023-01-29T13:23:39;96124.69;;;3.40;100.00
41222;BME280;26952;42.884;23.918;2023-01-29T13:26:07;96135.16;;;3.40;100.00
41222;BME280;26952;42.884;23.918;2023-01-29T13:28:33;96120.81;;;3.24;100.00
41222;BME280;26952;42.884;23.918;2023-01-29T13:31:30;96133.69;;;3.47;100.00
41222;BME280;26952;42.884;23.918;2023-01-29T13:34:18;96125.72;;;3.60;100.00
41222;BME280;26952;42.884;23.918;2023-01-29T13:36:54;96136.34;;;3.79;100.00
41222;BME280;26952;42.884;23.918;2023-01-29T13:39:27;96124.41;;;3.54;100.00
41222;BME280;26952;42.884;23.918;2023-01-29T13:41:54;96133.22;;;3.42;100.00
41222;BME280;26952;42.884;23.918;2023-01-29T13:44:30;96135.16;;;3.40;100.00
41222;BME280;26952;42.884;23.918;2023-01-29T13:49:37;96116.59;;;3.43;100.00
41222;BME280;26952;42.884;23.918;2023-01-29T13:52:40;96121.47;;;3.48;100.00
41222;BME280;26952;42.884;23.918;2023-01-29T14:10:22;96149.88;;;3.52;100.00
41222;BME280;26952;42.884;23.918;2023-01-29T14:18:24;96139.63;;;3.60;100.00
41222;BME280;26952;42.884;23.918;2023-01-29T14:20:56;96156.25;;;3.70;100.00
41222;BME280;26952;42.884;23.918;2023-01-29T14:25:50;96147.66;;;3.37;100.00
41222;BME280;26952;42.884;23.918;2023-01-29T14:28:21;96156.09;;;3.29;100.00
41222;BME280;26952;42.884;23.918;2023-01-29T14:30:48;96151.97;;;3.05;100.00
41222;BME280;26952;42.884;23.918;2023-01-29T14:33:34;96154.47;;;3.06;100.00
41222;BME280;26952;42.884;23.918;2023-01-29T14:36:11;96148.03;;;3.10;100.00
41222;BME280;26952;42.884;23.918;2023-01-29T14:38:38;96153.75;;;2.93;100.00
41222;BME280;26952;42.884;23.918;2023-01-29T14:43:40;96153.84;;;2.80;100.00
41222;BME280;26952;42.884;23.918;2023-01-29T14:46:46;96167.16;;;2.88;100.00
41222;BME280;26952;42.884;23.918;2023-01-29T14:49:10;96150.88;;;2.63;100.00
41222;BME280;26952;42.884;23.918;2023-01-29T14:51:39;96149.19;;;2.40;100.00
41222;BME280;26952;42.884;23.918;2023-01-29T14:54:26;96159.84;;;2.37;100.00
41222;BME280;26952;42.884;23.918;2023-01-29T14:56:58;96164.88;;;2.40;100.00
41222;BME280;26952;42.884;23.918;2023-01-29T14:59:56;96164.41;;;2.46;100.00
41222;BME280;26952;42.884;23.918;2023-01-29T15:02:50;96166.78;;;2.60;100.00
41222;BME280;26952;42.884;23.918;2023-01-29T15:05:19;96168.81;;;2.67;100.00
41222;BME280;26952;42.884;23.918;2023-01-29T15:10:55;96166.66;;;2.72;100.00
41222;BME280;26952;42.884;23.918;2023-01-29T15:13:49;96171.97;;;2.38;100.00
41222;BME280;26952;42.884;23.918;2023-01-29T15:16:29;96166.91;;;2.13;100.00
41222;BME280;26952;42.884;23.918;2023-01-29T15:19:06;96167.56;;;1.93;100.00
41222;BME280;26952;42.884;23.918;2023-01-29T15:21:36;96134.59;;;1.68;100.00
41222;BME280;26952;42.884;23.918;2023-01-29T15:24:05;96168.25;;;1.95;100.00
41222;BME280;26952;42.884;23.918;2023-01-29T15:26:32;96179.84;;;2.14;100.00
41222;BME280;26952;42.884;23.918;2023-01-29T15:29:00;96169.53;;;2.24;100.00
41222;BME280;26952;42.884;23.918;2023-01-29T15:31:27;96173.97;;;2.34;100.00
41222;BME280;26952;42.884;23.918;2023-01-29T15:33:54;96164.03;;;2.39;100.00